createdAt,value
2023-05-23T00:01:31.177Z,78.40
2023-05-23T00:03:58.366Z,78.39
2023-05-23T00:06:24.968Z,78.41
2023-05-23T00:08:51.706Z,78.34
2023-05-23T00:11:18.254Z,78.38
2023-05-23T00:13:44.833Z,78.60
2023-05-23T00:16:11.565Z,78.58
2023-05-23T00:18:38.676Z,78.86
2023-05-23T00:21:05.265Z,78.91
2023-05-23T00:23:31.942Z,78.78
2023-05-23T00:25:58.461Z,78.90
2023-05-23T00:28:24.990Z,78.85
2023-05-23T00:30:51.739Z,78.82
2023-05-23T00:33:18.545Z,79.09
2023-05-23T00:35:45.225Z,79.05
2023-05-23T00:38:11.807Z,78.97
2023-05-23T00:40:38.610Z,79.03
2023-05-23T00:43:05.155Z,79.03
2023-05-23T00:45:32.006Z,78.86
2023-05-23T00:47:59.375Z,78.76
2023-05-23T00:50:26.501Z,78.80
2023-05-23T00:52:53.060Z,78.84
2023-05-23T00:55:19.605Z,79.18
2023-05-23T00:57:46.280Z,79.06
2023-05-23T01:00:13.439Z,79.02
2023-05-23T01:02:43.795Z,79.28
2023-05-23T01:05:17.935Z,79.28
2023-05-23T01:07:45.615Z,79.18
2023-05-23T01:10:13.420Z,79.21
2023-05-23T01:13:05.732Z,79.15
2023-05-23T01:15:48.048Z,78.94
2023-05-23T01:18:29.807Z,78.86
2023-05-23T01:21:03.560Z,78.80
2023-05-23T01:23:36.617Z,78.75
2023-05-23T01:26:46.613Z,78.61
2023-05-23T01:29:39.773Z,78.47
2023-05-23T01:32:10.644Z,78.59
2023-05-23T01:34:38.316Z,78.56
2023-05-23T01:37:09.615Z,78.31
2023-05-23T01:39:36.624Z,78.40
2023-05-23T01:42:03.556Z,78.39
2023-05-23T01:44:30.736Z,78.53
2023-05-23T01:46:57.799Z,78.53
2023-05-23T01:49:24.846Z,78.72
2023-05-23T01:51:51.532Z,78.96
2023-05-23T01:54:18.590Z,79.12
2023-05-23T01:56:45.743Z,79.23
2023-05-23T01:59:12.966Z,79.05
2023-05-23T02:01:39.787Z,79.09
2023-05-23T02:04:06.494Z,78.86
2023-05-23T02:06:33.036Z,78.90
2023-05-23T02:08:59.549Z,78.83
2023-05-23T02:11:26.111Z,78.85
2023-05-23T02:13:52.766Z,78.91
2023-05-23T02:16:19.350Z,79.16
2023-05-23T02:18:45.921Z,79.25
2023-05-23T02:21:12.468Z,79.46
2023-05-23T02:23:38.959Z,79.39
2023-05-23T02:26:05.581Z,79.35
2023-05-23T02:28:32.180Z,79.36
2023-05-23T02:30:59.321Z,79.37
2023-05-23T02:33:25.857Z,79.36
2023-05-23T02:35:52.617Z,79.21
2023-05-23T02:38:19.260Z,79.34
2023-05-23T02:40:45.870Z,79.33
2023-05-23T02:43:12.473Z,79.13
2023-05-23T02:45:39.200Z,79.33
2023-05-23T02:48:05.847Z,79.47
2023-05-23T02:50:32.692Z,79.60
2023-05-23T02:52:59.259Z,79.51
2023-05-23T02:55:25.771Z,79.61
2023-05-23T02:57:52.483Z,79.61
2023-05-23T03:00:19.129Z,79.59
2023-05-23T03:02:45.759Z,79.45
2023-05-23T03:05:12.423Z,79.60
2023-05-23T03:07:38.937Z,79.62
2023-05-23T03:10:06.232Z,79.56
2023-05-23T03:12:32.787Z,79.51
2023-05-23T03:14:59.403Z,79.54
2023-05-23T03:17:26.034Z,79.59
2023-05-23T03:19:52.705Z,79.60
2023-05-23T03:22:19.373Z,79.78
2023-05-23T03:24:45.979Z,79.71
2023-05-23T03:27:12.595Z,79.74
2023-05-23T03:29:39.835Z,79.78
2023-05-23T03:32:06.777Z,79.88
2023-05-23T03:34:33.896Z,79.85
2023-05-23T03:37:00.486Z,80.16
2023-05-23T03:39:26.982Z,80.16
2023-05-23T03:41:53.604Z,80.13
2023-05-23T03:44:20.264Z,79.99
2023-05-23T03:46:46.828Z,80.14
2023-05-23T03:49:13.476Z,80.12
2023-05-23T03:51:40.024Z,80.07
2023-05-23T03:54:06.599Z,80.01
2023-05-23T03:56:33.204Z,80.09
2023-05-23T03:58:59.722Z,80.01
2023-05-23T04:01:26.234Z,79.87
2023-05-23T04:03:53.341Z,79.81
2023-05-23T04:06:20.827Z,79.73
2023-05-23T04:08:47.410Z,79.85
2023-05-23T04:11:14.254Z,79.86
2023-05-23T04:13:40.827Z,79.85
2023-05-23T04:16:07.388Z,79.69
2023-05-23T04:18:33.995Z,79.54
2023-05-23T04:21:00.508Z,79.64
2023-05-23T04:23:27.241Z,79.85
2023-05-23T04:25:53.810Z,79.56
2023-05-23T04:28:20.306Z,79.24
2023-05-23T04:30:46.845Z,79.04
2023-05-23T04:33:13.450Z,79.28
2023-05-23T04:35:40.293Z,79.53
2023-05-23T04:38:07.248Z,79.22
2023-05-23T04:40:33.802Z,79.65
2023-05-23T04:43:00.366Z,79.81
2023-05-23T04:45:27.101Z,79.87
2023-05-23T04:47:53.664Z,80.14
2023-05-23T04:50:20.854Z,80.23
2023-05-23T04:52:47.645Z,80.20
2023-05-23T04:55:14.333Z,79.99
2023-05-23T04:57:41.027Z,79.74
2023-05-23T05:00:08.127Z,79.51
2023-05-23T05:02:34.639Z,79.47
2023-05-23T05:05:01.218Z,79.34
2023-05-23T05:07:27.827Z,78.51
2023-05-23T05:09:54.358Z,77.64
2023-05-23T05:12:20.851Z,77.63
2023-05-23T05:14:47.478Z,77.87
2023-05-23T05:17:14.062Z,78.07
2023-05-23T05:19:40.605Z,77.85
2023-05-23T05:22:07.146Z,77.55
2023-05-23T05:24:33.780Z,77.55
2023-05-23T05:27:00.238Z,77.44
2023-05-23T05:29:26.764Z,76.61
2023-05-23T05:31:53.328Z,75.24
2023-05-23T05:34:19.901Z,74.23
2023-05-23T05:36:46.480Z,73.99
2023-05-23T05:39:13.400Z,74.34
2023-05-23T05:41:40.121Z,74.54
2023-05-23T05:44:08.324Z,74.21
2023-05-23T05:46:34.880Z,73.55
2023-05-23T05:49:01.446Z,72.41
2023-05-23T05:51:27.979Z,71.66
2023-05-23T05:53:54.552Z,72.24
2023-05-23T05:56:21.171Z,72.39
2023-05-23T05:58:47.720Z,71.93
2023-05-23T06:01:14.258Z,71.35
2023-05-23T06:03:40.887Z,70.91
2023-05-23T06:06:07.790Z,70.52
2023-05-23T06:08:34.509Z,70.19
2023-05-23T06:11:01.004Z,69.89
2023-05-23T06:13:27.504Z,69.16
2023-05-23T06:15:54.199Z,68.61
2023-05-23T06:18:20.914Z,68.61
2023-05-23T06:20:47.462Z,68.42
2023-05-23T06:23:13.981Z,69.01
2023-05-23T06:25:40.504Z,69.44
2023-05-23T06:28:07.146Z,68.96
2023-05-23T06:30:33.819Z,68.63
2023-05-23T06:33:00.397Z,68.28
2023-05-23T06:35:26.996Z,68.66
2023-05-23T06:37:53.518Z,67.96
2023-05-23T06:40:20.149Z,67.35
2023-05-23T06:42:46.679Z,66.81
2023-05-23T06:45:15.691Z,66.33
2023-05-23T06:47:43.193Z,66.12
2023-05-23T06:50:10.136Z,65.94
2023-05-23T06:52:36.761Z,65.36
2023-05-23T06:55:03.449Z,65.67
2023-05-23T06:57:29.941Z,64.77
2023-05-23T06:59:56.432Z,64.48
2023-05-23T07:02:23.138Z,63.56
2023-05-23T07:04:49.692Z,62.91
2023-05-23T07:07:16.219Z,62.77
2023-05-23T07:09:42.725Z,63.09
2023-05-23T07:12:09.204Z,63.12
2023-05-23T07:14:35.737Z,62.92
2023-05-23T07:17:02.298Z,62.61
2023-05-23T07:19:28.944Z,62.03
2023-05-23T07:21:55.601Z,62.03
2023-05-23T07:24:24.507Z,60.79
2023-05-23T07:26:51.838Z,58.99
2023-05-23T07:29:18.372Z,59.25
2023-05-23T07:31:44.968Z,59.24
2023-05-23T07:34:11.615Z,58.65
2023-05-23T07:36:38.148Z,58.55
2023-05-23T07:39:04.663Z,59.34
2023-05-23T07:41:31.242Z,59.61
2023-05-23T07:43:57.832Z,59.84
2023-05-23T07:46:24.361Z,59.15
2023-05-23T07:48:50.904Z,58.11
2023-05-23T07:51:17.435Z,57.10
2023-05-23T07:53:43.979Z,57.06
2023-05-23T07:56:10.509Z,56.43
2023-05-23T07:58:37.050Z,56.91
2023-05-23T08:01:03.665Z,56.24
2023-05-23T08:03:30.150Z,54.52
2023-05-23T08:05:56.648Z,54.50
2023-05-23T08:08:23.187Z,54.86
2023-05-23T08:10:49.840Z,55.03
2023-05-23T08:13:16.573Z,55.37
2023-05-23T08:15:43.159Z,55.08
2023-05-23T08:18:09.980Z,53.65
2023-05-23T08:20:36.623Z,53.46
2023-05-23T08:23:03.160Z,53.40
2023-05-23T08:25:30.050Z,53.48
2023-05-23T08:27:57.646Z,53.16
2023-05-23T08:30:25.154Z,52.94
2023-05-23T08:32:53.192Z,53.00
2023-05-23T08:35:19.767Z,52.72
2023-05-23T08:37:46.459Z,52.76
2023-05-23T08:40:20.756Z,52.42
2023-05-23T08:42:50.762Z,52.72
2023-05-23T08:45:18.252Z,51.91
2023-05-23T08:47:45.991Z,50.99
2023-05-23T08:50:14.811Z,51.09
2023-05-23T08:52:48.021Z,50.99
2023-05-23T08:55:15.051Z,50.32
2023-05-23T08:57:42.112Z,49.66
2023-05-23T09:00:10.784Z,49.66
2023-05-23T09:02:38.193Z,49.99
2023-05-23T09:05:05.726Z,49.91
2023-05-23T09:07:32.278Z,50.47
2023-05-23T09:09:58.818Z,50.22
2023-05-23T09:12:25.406Z,49.87
2023-05-23T09:14:52.902Z,50.03
2023-05-23T09:17:19.444Z,49.39
2023-05-23T09:19:46.498Z,49.19
2023-05-23T09:22:13.442Z,48.68
2023-05-23T09:24:39.961Z,49.04
2023-05-23T09:27:06.510Z,48.73
2023-05-23T09:29:33.055Z,48.67
2023-05-23T09:32:14.673Z,48.08
2023-05-23T09:35:01.401Z,47.37
2023-05-23T09:37:31.446Z,47.24
2023-05-23T09:39:59.183Z,47.02
2023-05-23T09:42:25.900Z,47.52
2023-05-23T09:44:53.856Z,46.04
2023-05-23T09:47:20.474Z,46.10
2023-05-23T09:49:47.129Z,45.87
2023-05-23T09:52:13.815Z,47.33
2023-05-23T09:54:40.685Z,47.30
2023-05-23T09:57:10.551Z,46.33
2023-05-23T09:59:42.446Z,46.75
2023-05-23T10:02:12.333Z,46.36
2023-05-23T10:04:43.438Z,45.75
2023-05-23T10:07:15.139Z,46.93
2023-05-23T10:09:45.467Z,46.31
2023-05-23T10:12:42.102Z,45.91
2023-05-23T10:15:11.229Z,45.37
2023-05-23T10:17:46.710Z,45.64
2023-05-23T10:20:16.764Z,45.51
2023-05-23T10:22:43.911Z,44.94
2023-05-23T10:25:10.620Z,44.07
2023-05-23T10:27:38.479Z,44.41
2023-05-23T10:30:06.411Z,44.87
2023-05-23T10:32:34.498Z,43.95
2023-05-23T10:35:07.455Z,44.09
2023-05-23T10:37:47.060Z,44.22
2023-05-23T10:40:24.388Z,45.10
2023-05-23T10:43:12.496Z,44.58
2023-05-23T10:45:43.214Z,44.02
2023-05-23T10:48:28.344Z,43.80
2023-05-23T10:51:15.231Z,41.84
2023-05-23T10:53:46.825Z,39.28
2023-05-23T10:56:23.399Z,39.60
2023-05-23T10:58:54.601Z,39.72
2023-05-23T11:01:21.447Z,39.30
2023-05-23T11:03:49.303Z,39.14
2023-05-23T11:06:33.649Z,37.52
2023-05-23T11:09:10.978Z,36.42
2023-05-23T11:12:00.346Z,37.01
2023-05-23T11:14:32.817Z,37.83
2023-05-23T11:17:00.822Z,37.90
2023-05-23T11:19:29.247Z,38.83
2023-05-23T11:21:59.866Z,39.33
2023-05-23T11:24:59.526Z,39.66
2023-05-23T11:27:31.562Z,38.93
2023-05-23T11:30:06.809Z,38.51
2023-05-23T11:32:34.364Z,38.33
2023-05-23T11:35:08.813Z,39.19
2023-05-23T11:37:36.366Z,37.88
2023-05-23T11:40:28.753Z,38.29
2023-05-23T11:42:55.988Z,39.23
2023-05-23T11:45:23.473Z,39.51
2023-05-23T11:47:50.067Z,39.89
2023-05-23T11:50:17.271Z,40.23
2023-05-23T11:52:43.998Z,39.93
2023-05-23T11:55:10.581Z,38.80
2023-05-23T11:57:40.183Z,37.94
2023-05-23T12:00:07.825Z,37.62
2023-05-23T12:02:41.006Z,38.04
2023-05-23T12:05:09.547Z,38.08
2023-05-23T12:07:36.453Z,38.03
2023-05-23T12:10:06.569Z,38.18
2023-05-23T12:12:33.165Z,37.83
2023-05-23T12:14:59.737Z,36.42
2023-05-23T12:17:26.943Z,36.49
2023-05-23T12:19:53.503Z,36.24
2023-05-23T12:22:23.935Z,36.49
2023-05-23T12:24:53.849Z,36.49
2023-05-23T12:27:26.409Z,36.74
2023-05-23T12:30:05.038Z,37.38
2023-05-23T12:32:31.646Z,37.44
2023-05-23T12:34:58.236Z,37.41
2023-05-23T12:37:24.808Z,36.98
2023-05-23T12:39:51.683Z,36.90
2023-05-23T12:42:18.207Z,37.51
2023-05-23T12:44:44.703Z,37.22
2023-05-23T12:47:11.278Z,37.38
2023-05-23T12:49:38.357Z,37.18
2023-05-23T12:52:05.009Z,37.95
2023-05-23T12:54:31.503Z,38.44
2023-05-23T12:56:58.077Z,38.40
2023-05-23T12:59:24.631Z,38.47
2023-05-23T13:01:51.254Z,38.57
2023-05-23T13:04:17.875Z,38.93
2023-05-23T13:06:44.520Z,39.28
2023-05-23T13:09:11.051Z,38.89
2023-05-23T13:11:37.620Z,38.76
2023-05-23T13:14:04.127Z,37.75
2023-05-23T13:16:30.782Z,37.54
2023-05-23T13:18:57.802Z,37.19
2023-05-23T13:21:24.400Z,36.51
2023-05-23T13:23:50.945Z,37.16
2023-05-23T13:26:17.474Z,36.95
2023-05-23T13:28:44.012Z,36.41
2023-05-23T13:31:10.658Z,36.78
2023-05-23T13:33:37.139Z,37.28
2023-05-23T13:36:04.028Z,37.34
2023-05-23T13:38:30.535Z,37.33
2023-05-23T13:40:57.038Z,36.81
2023-05-23T13:43:23.577Z,36.61
2023-05-23T13:45:50.045Z,36.92
2023-05-23T13:48:16.606Z,37.04
2023-05-23T13:50:43.477Z,37.16
2023-05-23T13:53:10.295Z,37.70
2023-05-23T13:55:36.789Z,37.44
2023-05-23T13:58:03.282Z,37.09
2023-05-23T14:00:29.817Z,37.41
2023-05-23T14:02:56.338Z,36.75
2023-05-23T14:05:22.930Z,37.05
2023-05-23T14:07:49.487Z,37.37
2023-05-23T14:10:16.118Z,36.89
2023-05-23T14:12:42.705Z,37.13
2023-05-23T14:15:10.136Z,36.87
2023-05-23T14:17:36.725Z,36.96
2023-05-23T14:20:04.224Z,36.59
2023-05-23T14:22:30.782Z,35.73
2023-05-23T14:24:58.472Z,35.60
2023-05-23T14:27:25.178Z,36.22
2023-05-23T14:29:51.693Z,36.15
2023-05-23T14:32:18.435Z,35.93
2023-05-23T14:34:45.019Z,35.03
2023-05-23T14:37:11.533Z,35.44
2023-05-23T14:39:38.054Z,34.77
2023-05-23T14:42:04.960Z,35.53
2023-05-23T14:44:31.474Z,35.87
2023-05-23T14:46:57.984Z,35.93
2023-05-23T14:49:24.512Z,35.24
2023-05-23T14:51:51.435Z,36.29
2023-05-23T14:54:18.915Z,35.28
2023-05-23T14:56:45.523Z,34.58
2023-05-23T14:59:12.077Z,35.28
2023-05-23T15:01:40.406Z,35.87
2023-05-23T15:04:07.732Z,35.98
2023-05-23T15:06:34.410Z,35.74
2023-05-23T15:09:01.016Z,35.94
2023-05-23T15:11:27.843Z,35.35
2023-05-23T15:13:54.446Z,35.30
2023-05-23T15:16:21.023Z,36.15
2023-05-23T15:18:47.702Z,35.89
2023-05-23T15:21:14.465Z,36.32
2023-05-23T15:23:40.971Z,36.71
2023-05-23T15:26:07.536Z,36.79
2023-05-23T15:28:34.254Z,36.18
2023-05-23T15:31:00.879Z,35.59
2023-05-23T15:33:27.531Z,35.64
2023-05-23T15:35:54.120Z,34.96
2023-05-23T15:38:20.654Z,35.55
2023-05-23T15:40:47.280Z,35.79
2023-05-23T15:43:13.826Z,36.21
2023-05-23T15:45:40.357Z,35.71
2023-05-23T15:48:06.946Z,35.52
2023-05-23T15:50:33.536Z,36.12
2023-05-23T15:53:00.022Z,37.10
2023-05-23T15:55:26.545Z,37.71
2023-05-23T15:57:53.090Z,38.14
2023-05-23T16:00:20.060Z,38.51
2023-05-23T16:02:46.703Z,38.96
2023-05-23T16:05:13.300Z,38.80
2023-05-23T16:07:39.823Z,38.86
2023-05-23T16:10:06.683Z,39.01
2023-05-23T16:12:33.143Z,39.73
2023-05-23T16:14:59.660Z,40.76
2023-05-23T16:17:26.155Z,40.74
2023-05-23T16:19:52.646Z,41.05
2023-05-23T16:22:19.136Z,41.71
2023-05-23T16:24:45.634Z,42.31
2023-05-23T16:27:12.247Z,41.90
2023-05-23T16:29:38.739Z,41.03
2023-05-23T16:32:05.795Z,41.67
2023-05-23T16:34:32.466Z,42.76
2023-05-23T16:36:58.975Z,42.91
2023-05-23T16:39:25.495Z,42.93
2023-05-23T16:41:52.027Z,42.89
2023-05-23T16:44:18.643Z,43.20
2023-05-23T16:46:45.356Z,43.24
2023-05-23T16:49:11.970Z,43.45
2023-05-23T16:51:38.935Z,43.46
2023-05-23T16:54:05.555Z,43.86
2023-05-23T16:56:32.045Z,44.12
2023-05-23T16:58:58.565Z,44.26
2023-05-23T17:01:25.227Z,44.47
2023-05-23T17:03:51.976Z,44.42
2023-05-23T17:06:18.571Z,44.34
2023-05-23T17:08:45.022Z,44.18
2023-05-23T17:11:11.506Z,44.67
2023-05-23T17:13:38.003Z,45.20
2023-05-23T17:16:04.756Z,45.17
2023-05-23T17:18:31.295Z,45.47
2023-05-23T17:20:58.233Z,45.85
2023-05-23T17:23:25.057Z,46.20
2023-05-23T17:25:51.614Z,46.25
2023-05-23T17:28:18.118Z,46.07
2023-05-23T17:30:44.640Z,46.19
2023-05-23T17:33:11.233Z,46.59
2023-05-23T17:35:37.826Z,45.83
2023-05-23T17:38:04.412Z,46.02
2023-05-23T17:40:31.033Z,46.72
2023-05-23T17:42:57.746Z,47.54
2023-05-23T17:45:24.432Z,48.14
2023-05-23T17:47:51.002Z,48.86
2023-05-23T17:50:17.749Z,49.50
2023-05-23T17:52:44.345Z,49.99
2023-05-23T17:55:10.966Z,50.71
2023-05-23T17:57:37.453Z,51.14
2023-05-23T18:00:04.495Z,51.76
2023-05-23T18:02:31.044Z,52.20
2023-05-23T18:04:57.698Z,52.51
2023-05-23T18:07:24.176Z,52.98
2023-05-23T18:09:50.853Z,53.55
2023-05-23T18:12:17.357Z,54.35
2023-05-23T18:14:43.812Z,54.34
2023-05-23T18:17:10.455Z,54.69
2023-05-23T18:19:37.181Z,54.75
2023-05-23T18:22:03.982Z,55.20
2023-05-23T18:24:30.525Z,55.47
2023-05-23T18:26:57.984Z,55.97
2023-05-23T18:29:24.774Z,56.41
2023-05-23T18:31:51.271Z,56.72
2023-05-23T18:34:17.784Z,57.34
2023-05-23T18:36:44.323Z,57.74
2023-05-23T18:39:10.973Z,57.70
2023-05-23T18:41:37.496Z,57.92
2023-05-23T18:44:03.997Z,57.58
2023-05-23T18:46:30.645Z,57.73
2023-05-23T18:48:57.149Z,57.80
2023-05-23T18:51:23.730Z,57.69
2023-05-23T18:53:50.387Z,57.60
2023-05-23T18:56:16.927Z,57.91
2023-05-23T18:58:45.323Z,58.32
2023-05-23T19:01:13.232Z,58.36
2023-05-23T19:03:39.874Z,58.42
2023-05-23T19:06:06.828Z,58.03
2023-05-23T19:08:33.693Z,58.20
2023-05-23T19:11:00.682Z,58.37
2023-05-23T19:13:27.389Z,57.91
2023-05-23T19:15:54.366Z,57.66
2023-05-23T19:18:20.936Z,57.83
2023-05-23T19:20:47.679Z,57.88
2023-05-23T19:23:14.575Z,57.61
2023-05-23T19:25:41.086Z,57.29
2023-05-23T19:28:07.724Z,57.26
2023-05-23T19:30:34.303Z,57.23
2023-05-23T19:33:00.912Z,57.68
2023-05-23T19:35:28.373Z,57.67
2023-05-23T19:37:54.944Z,58.02
2023-05-23T19:40:21.444Z,57.88
2023-05-23T19:42:48.530Z,57.96
2023-05-23T19:45:15.207Z,58.35
2023-05-23T19:47:41.729Z,58.15
2023-05-23T19:50:10.715Z,58.42
2023-05-23T19:52:37.278Z,58.63
2023-05-23T19:55:04.148Z,58.71
2023-05-23T19:57:31.373Z,58.84
2023-05-23T19:59:57.940Z,59.17
2023-05-23T20:02:24.549Z,59.17
2023-05-23T20:04:51.100Z,59.61
2023-05-23T20:07:17.688Z,59.98
2023-05-23T20:09:44.228Z,60.37
2023-05-23T20:12:10.826Z,60.57
2023-05-23T20:14:37.371Z,60.89
2023-05-23T20:17:04.042Z,60.97
2023-05-23T20:19:30.589Z,61.04
2023-05-23T20:21:57.167Z,61.00
2023-05-23T20:24:24.329Z,61.17
2023-05-23T20:26:50.992Z,61.54
2023-05-23T20:29:17.514Z,61.67
2023-05-23T20:31:44.217Z,61.66
2023-05-23T20:34:10.801Z,61.65
2023-05-23T20:36:37.426Z,61.85
2023-05-23T20:39:04.099Z,61.94
2023-05-23T20:41:30.647Z,61.95
2023-05-23T20:43:57.150Z,61.98
2023-05-23T20:46:23.748Z,62.06
2023-05-23T20:48:50.378Z,62.45
2023-05-23T20:51:16.978Z,62.61
2023-05-23T20:53:43.476Z,62.81
2023-05-23T20:56:10.012Z,63.11
2023-05-23T20:58:36.883Z,63.26
2023-05-23T21:01:03.460Z,63.39
2023-05-23T21:03:30.095Z,63.62
2023-05-23T21:05:56.712Z,63.90
2023-05-23T21:08:23.250Z,64.19
2023-05-23T21:10:51.669Z,64.24
2023-05-23T21:13:20.906Z,64.67
2023-05-23T21:15:47.557Z,64.81
2023-05-23T21:18:14.075Z,65.10
2023-05-23T21:20:40.730Z,65.45
2023-05-23T21:23:07.573Z,65.76
2023-05-23T21:25:34.085Z,66.02
2023-05-23T21:28:00.597Z,66.02
2023-05-23T21:30:27.252Z,66.33
2023-05-23T21:32:53.875Z,66.55
2023-05-23T21:35:20.415Z,66.56
2023-05-23T21:37:46.899Z,66.70
2023-05-23T21:40:13.392Z,66.79
2023-05-23T21:42:39.889Z,66.83
2023-05-23T21:45:07.203Z,66.79
2023-05-23T21:47:33.804Z,66.95
2023-05-23T21:50:00.318Z,67.10
2023-05-23T21:52:26.878Z,67.47
2023-05-23T21:54:53.417Z,67.62
2023-05-23T21:57:19.887Z,67.99
2023-05-23T21:59:46.417Z,68.06
2023-05-23T22:02:13.031Z,68.37
2023-05-23T22:04:39.578Z,68.58
2023-05-23T22:07:06.112Z,68.78
2023-05-23T22:09:32.607Z,69.09
2023-05-23T22:11:59.114Z,69.15
2023-05-23T22:14:25.637Z,69.31
2023-05-23T22:16:52.175Z,69.53
2023-05-23T22:19:18.769Z,69.74
2023-05-23T22:21:45.542Z,69.83
2023-05-23T22:24:12.170Z,69.81
2023-05-23T22:26:38.667Z,69.96
2023-05-23T22:29:05.419Z,70.12
2023-05-23T22:31:31.948Z,70.33
2023-05-23T22:33:58.561Z,70.34
2023-05-23T22:36:25.075Z,70.39
2023-05-23T22:38:51.614Z,70.58
2023-05-23T22:41:18.515Z,70.67
2023-05-23T22:43:45.425Z,70.81
2023-05-23T22:46:11.981Z,70.97
2023-05-23T22:48:38.563Z,70.94
2023-05-23T22:51:05.440Z,71.00
2023-05-23T22:53:32.150Z,71.26
2023-05-23T22:55:58.674Z,71.27
2023-05-23T22:58:25.223Z,71.26
2023-05-23T23:00:51.972Z,71.24
2023-05-23T23:03:18.842Z,71.37
2023-05-23T23:05:45.564Z,71.42
2023-05-23T23:08:12.221Z,71.57
2023-05-23T23:10:39.377Z,71.41
2023-05-23T23:13:05.924Z,71.41
2023-05-23T23:15:32.425Z,71.49
2023-05-23T23:17:59.357Z,71.51
2023-05-23T23:20:25.920Z,71.52
2023-05-23T23:22:52.519Z,71.46
2023-05-23T23:25:19.092Z,71.45
2023-05-23T23:27:45.633Z,71.56
2023-05-23T23:30:12.515Z,71.64
2023-05-23T23:32:39.072Z,71.58
2023-05-23T23:35:06.043Z,71.62
2023-05-23T23:37:32.552Z,71.50
2023-05-23T23:39:59.130Z,71.52
2023-05-23T23:42:25.610Z,71.45
2023-05-23T23:44:52.104Z,71.51
2023-05-23T23:47:18.622Z,71.44
2023-05-23T23:49:45.126Z,71.47
2023-05-23T23:52:11.677Z,71.54
2023-05-23T23:54:38.206Z,71.49
2023-05-23T23:57:04.797Z,71.53
2023-05-23T23:59:31.276Z,71.54
